sensor_id;sensor_type;location;lat;lon;timestamp;pressure;altitude;pressure_sealevel;temperature;humidity
70815;BME280;58428;49.478;10.986;2023-05-29T00:01:55;98470.69;;;15.59;100.00
70815;BME280;58428;49.478;10.986;2023-05-29T00:04:20;98466.72;;;15.56;100.00
70815;BME280;58428;49.478;10.986;2023-05-29T00:06:46;98466.00;;;15.59;100.00
70815;BME280;58428;49.478;10.986;2023-05-29T00:09:12;98467.50;;;15.57;100.00
70815;BME280;58428;49.478;10.986;2023-05-29T00:11:39;98472.44;;;15.51;100.00
70815;BME280;58428;49.478;10.986;2023-05-29T00:14:05;98478.34;;;15.53;100.00
70815;BME280;58428;49.478;10.986;2023-05-29T00:16:30;98475.53;;;15.50;100.00
70815;BME280;58428;49.478;10.986;2023-05-29T00:18:56;98473.00;;;15.42;100.00
70815;BME280;58428;49.478;10.986;2023-05-29T00:21:23;98473.28;;;15.37;100.00
70815;BME280;58428;49.478;10.986;2023-05-29T00:23:48;98474.25;;;15.29;100.00
70815;BME280;58428;49.478;10.986;2023-05-29T00:26:13;98472.59;;;15.24;100.00
70815;BME280;58428;49.478;10.986;2023-05-29T00:28:41;98478.41;;;15.23;100.00
70815;BME280;58428;49.478;10.986;2023-05-29T00:31:07;98477.91;;;15.17;100.00
70815;BME280;58428;49.478;10.986;2023-05-29T00:33:32;98478.81;;;15.09;100.00
70815;BME280;58428;49.478;10.986;2023-05-29T00:35:58;98484.56;;;15.05;100.00
70815;BME280;58428;49.478;10.986;2023-05-29T00:38:23;98469.28;;;15.00;100.00
70815;BME280;58428;49.478;10.986;2023-05-29T00:40:48;98476.56;;;14.96;100.00
70815;BME280;58428;49.478;10.986;2023-05-29T00:43:14;98476.47;;;14.93;100.00
70815;BME280;58428;49.478;10.986;2023-05-29T00:45:40;98472.69;;;14.82;100.00
70815;BME280;58428;49.478;10.986;2023-05-29T00:48:06;98475.69;;;14.77;100.00
70815;BME280;58428;49.478;10.986;2023-05-29T00:50:32;98480.94;;;14.70;100.00
70815;BME280;58428;49.478;10.986;2023-05-29T00:52:58;98485.31;;;14.74;100.00
70815;BME280;58428;49.478;10.986;2023-05-29T00:55:26;98486.13;;;14.75;100.00
70815;BME280;58428;49.478;10.986;2023-05-29T00:57:52;98477.88;;;14.72;100.00
70815;BME280;58428;49.478;10.986;2023-05-29T01:00:17;98485.06;;;14.64;100.00
70815;BME280;58428;49.478;10.986;2023-05-29T01:02:45;98484.38;;;14.67;100.00
70815;BME280;58428;49.478;10.986;2023-05-29T01:05:12;98488.03;;;14.59;100.00
70815;BME280;58428;49.478;10.986;2023-05-29T01:07:38;98481.81;;;14.59;100.00
70815;BME280;58428;49.478;10.986;2023-05-29T01:10:06;98493.66;;;14.51;100.00
70815;BME280;58428;49.478;10.986;2023-05-29T01:21:00;98474.84;;;14.31;100.00
70815;BME280;58428;49.478;10.986;2023-05-29T01:23:53;98482.13;;;14.27;100.00
70815;BME280;58428;49.478;10.986;2023-05-29T01:26:51;98485.19;;;14.25;100.00
70815;BME280;58428;49.478;10.986;2023-05-29T01:29:23;98484.97;;;14.18;100.00
70815;BME280;58428;49.478;10.986;2023-05-29T01:31:51;98480.56;;;14.14;100.00
70815;BME280;58428;49.478;10.986;2023-05-29T01:34:18;98485.91;;;14.10;100.00
70815;BME280;58428;49.478;10.986;2023-05-29T01:36:43;98481.06;;;14.04;100.00
70815;BME280;58428;49.478;10.986;2023-05-29T01:39:09;98484.13;;;14.02;100.00
70815;BME280;58428;49.478;10.986;2023-05-29T01:41:35;98480.63;;;14.02;100.00
70815;BME280;58428;49.478;10.986;2023-05-29T01:44:02;98478.69;;;14.02;100.00
70815;BME280;58428;49.478;10.986;2023-05-29T01:46:29;98485.59;;;14.00;100.00
70815;BME280;58428;49.478;10.986;2023-05-29T01:48:55;98475.75;;;13.96;100.00
70815;BME280;58428;49.478;10.986;2023-05-29T01:51:21;98483.03;;;13.92;100.00
70815;BME280;58428;49.478;10.986;2023-05-29T01:53:47;98470.66;;;13.94;100.00
70815;BME280;58428;49.478;10.986;2023-05-29T01:56:13;98470.09;;;13.89;100.00
70815;BME280;58428;49.478;10.986;2023-05-29T01:58:39;98482.81;;;13.85;100.00
70815;BME280;58428;49.478;10.986;2023-05-29T02:01:06;98469.81;;;13.78;100.00
70815;BME280;58428;49.478;10.986;2023-05-29T02:03:32;98479.34;;;13.72;100.00
70815;BME280;58428;49.478;10.986;2023-05-29T02:05:59;98477.63;;;13.68;100.00
70815;BME280;58428;49.478;10.986;2023-05-29T02:08:26;98477.63;;;13.68;100.00
70815;BME280;58428;49.478;10.986;2023-05-29T02:10:53;98473.34;;;13.67;100.00
70815;BME280;58428;49.478;10.986;2023-05-29T02:13:18;98472.56;;;13.66;100.00
70815;BME280;58428;49.478;10.986;2023-05-29T02:15:44;98469.75;;;13.63;100.00
70815;BME280;58428;49.478;10.986;2023-05-29T02:18:11;98465.09;;;13.63;100.00
70815;BME280;58428;49.478;10.986;2023-05-29T02:20:39;98469.63;;;13.60;100.00
70815;BME280;58428;49.478;10.986;2023-05-29T02:23:08;98465.75;;;13.60;100.00
70815;BME280;58428;49.478;10.986;2023-05-29T02:25:34;98458.91;;;13.51;100.00
70815;BME280;58428;49.478;10.986;2023-05-29T02:28:02;98465.34;;;13.47;100.00
70815;BME280;58428;49.478;10.986;2023-05-29T02:30:28;98460.72;;;13.47;100.00
70815;BME280;58428;49.478;10.986;2023-05-29T02:32:54;98461.06;;;13.46;100.00
70815;BME280;58428;49.478;10.986;2023-05-29T02:35:20;98462.44;;;13.40;100.00
70815;BME280;58428;49.478;10.986;2023-05-29T02:37:48;98452.34;;;13.40;100.00
70815;BME280;58428;49.478;10.986;2023-05-29T02:40:14;98461.97;;;13.38;100.00
70815;BME280;58428;49.478;10.986;2023-05-29T02:42:39;98454.50;;;13.35;100.00
70815;BME280;58428;49.478;10.986;2023-05-29T02:45:05;98452.47;;;13.32;100.00
70815;BME280;58428;49.478;10.986;2023-05-29T02:47:31;98459.28;;;13.26;100.00
70815;BME280;58428;49.478;10.986;2023-05-29T02:49:57;98463.38;;;13.20;100.00
70815;BME280;58428;49.478;10.986;2023-05-29T02:52:22;98455.66;;;13.22;100.00
70815;BME280;58428;49.478;10.986;2023-05-29T02:54:48;98465.50;;;13.15;100.00
70815;BME280;58428;49.478;10.986;2023-05-29T02:57:13;98462.34;;;13.13;100.00
70815;BME280;58428;49.478;10.986;2023-05-29T02:59:39;98461.31;;;13.05;100.00
70815;BME280;58428;49.478;10.986;2023-05-29T03:02:04;98462.22;;;13.09;100.00
70815;BME280;58428;49.478;10.986;2023-05-29T03:04:30;98460.63;;;13.08;100.00
70815;BME280;58428;49.478;10.986;2023-05-29T03:06:56;98456.91;;;13.13;100.00
70815;BME280;58428;49.478;10.986;2023-05-29T03:09:21;98461.06;;;13.10;100.00
70815;BME280;58428;49.478;10.986;2023-05-29T03:11:47;98458.28;;;13.07;100.00
70815;BME280;58428;49.478;10.986;2023-05-29T03:14:14;98466.19;;;13.00;100.00
70815;BME280;58428;49.478;10.986;2023-05-29T03:16:40;98469.16;;;12.95;100.00
70815;BME280;58428;49.478;10.986;2023-05-29T03:19:07;98465.16;;;12.92;100.00
70815;BME280;58428;49.478;10.986;2023-05-29T03:21:33;98460.44;;;12.89;100.00
70815;BME280;58428;49.478;10.986;2023-05-29T03:23:59;98463.22;;;12.81;100.00
70815;BME280;58428;49.478;10.986;2023-05-29T03:26:25;98467.22;;;12.84;100.00
70815;BME280;58428;49.478;10.986;2023-05-29T03:28:51;98466.75;;;12.82;100.00
70815;BME280;58428;49.478;10.986;2023-05-29T03:31:17;98469.66;;;12.77;100.00
70815;BME280;58428;49.478;10.986;2023-05-29T03:33:42;98473.72;;;12.71;100.00
70815;BME280;58428;49.478;10.986;2023-05-29T03:36:08;98476.53;;;12.62;100.00
70815;BME280;58428;49.478;10.986;2023-05-29T03:38:33;98475.63;;;12.58;100.00
70815;BME280;58428;49.478;10.986;2023-05-29T03:40:59;98476.41;;;12.59;100.00
70815;BME280;58428;49.478;10.986;2023-05-29T03:43:24;98484.09;;;12.57;100.00
70815;BME280;58428;49.478;10.986;2023-05-29T03:45:50;98489.88;;;12.55;100.00
70815;BME280;58428;49.478;10.986;2023-05-29T03:48:15;98485.03;;;12.61;100.00
70815;BME280;58428;49.478;10.986;2023-05-29T03:50:41;98485.03;;;12.73;100.00
70815;BME280;58428;49.478;10.986;2023-05-29T03:53:06;98484.94;;;12.81;100.00
70815;BME280;58428;49.478;10.986;2023-05-29T03:55:31;98485.31;;;12.80;100.00
70815;BME280;58428;49.478;10.986;2023-05-29T03:57:57;98489.59;;;12.81;100.00
70815;BME280;58428;49.478;10.986;2023-05-29T04:00:22;98491.84;;;12.79;100.00
70815;BME280;58428;49.478;10.986;2023-05-29T04:02:49;98497.69;;;12.69;100.00
70815;BME280;58428;49.478;10.986;2023-05-29T04:05:14;98492.16;;;12.65;100.00
70815;BME280;58428;49.478;10.986;2023-05-29T04:07:41;98496.47;;;12.66;100.00
70815;BME280;58428;49.478;10.986;2023-05-29T04:10:07;98506.59;;;12.57;100.00
70815;BME280;58428;49.478;10.986;2023-05-29T04:12:33;98504.94;;;12.65;100.00
70815;BME280;58428;49.478;10.986;2023-05-29T04:14:59;98508.56;;;12.69;100.00
70815;BME280;58428;49.478;10.986;2023-05-29T04:17:25;98513.88;;;12.77;100.00
70815;BME280;58428;49.478;10.986;2023-05-29T04:19:50;98509.50;;;12.85;100.00
70815;BME280;58428;49.478;10.986;2023-05-29T04:22:16;98512.47;;;12.91;100.00
70815;BME280;58428;49.478;10.986;2023-05-29T04:24:42;98518.69;;;12.92;100.00
70815;BME280;58428;49.478;10.986;2023-05-29T04:27:10;98518.47;;;12.97;100.00
70815;BME280;58428;49.478;10.986;2023-05-29T04:29:43;98527.63;;;13.04;100.00
70815;BME280;58428;49.478;10.986;2023-05-29T04:32:09;98526.97;;;13.19;100.00
70815;BME280;58428;49.478;10.986;2023-05-29T04:34:36;98529.00;;;13.34;100.00
70815;BME280;58428;49.478;10.986;2023-05-29T04:37:04;98528.66;;;13.47;100.00
70815;BME280;58428;49.478;10.986;2023-05-29T04:39:29;98540.88;;;13.65;100.00
70815;BME280;58428;49.478;10.986;2023-05-29T04:41:55;98534.84;;;13.71;100.00
70815;BME280;58428;49.478;10.986;2023-05-29T04:44:27;98540.03;;;13.88;100.00
70815;BME280;58428;49.478;10.986;2023-05-29T04:46:56;98544.78;;;13.91;100.00
70815;BME280;58428;49.478;10.986;2023-05-29T04:49:23;98545.66;;;14.07;100.00
70815;BME280;58428;49.478;10.986;2023-05-29T04:51:49;98552.25;;;14.06;100.00
70815;BME280;58428;49.478;10.986;2023-05-29T04:54:17;98548.81;;;14.09;100.00
70815;BME280;58428;49.478;10.986;2023-05-29T04:56:45;98555.44;;;13.96;100.00
70815;BME280;58428;49.478;10.986;2023-05-29T04:59:11;98556.00;;;14.01;100.00
70815;BME280;58428;49.478;10.986;2023-05-29T05:01:37;98564.03;;;13.98;100.00
70815;BME280;58428;49.478;10.986;2023-05-29T05:04:02;98559.38;;;13.98;100.00
70815;BME280;58428;49.478;10.986;2023-05-29T05:06:31;98555.31;;;14.04;100.00
70815;BME280;58428;49.478;10.986;2023-05-29T05:08:57;98552.91;;;14.15;100.00
70815;BME280;58428;49.478;10.986;2023-05-29T05:11:23;98561.59;;;14.20;100.00
70815;BME280;58428;49.478;10.986;2023-05-29T05:13:49;98562.50;;;14.24;100.00
70815;BME280;58428;49.478;10.986;2023-05-29T05:16:14;98562.38;;;14.33;100.00
70815;BME280;58428;49.478;10.986;2023-05-29T05:18:40;98564.38;;;14.35;100.00
70815;BME280;58428;49.478;10.986;2023-05-29T05:21:05;98572.56;;;14.35;100.00
70815;BME280;58428;49.478;10.986;2023-05-29T05:23:31;98573.44;;;14.39;100.00
70815;BME280;58428;49.478;10.986;2023-05-29T05:25:57;98577.59;;;14.49;100.00
70815;BME280;58428;49.478;10.986;2023-05-29T05:28:22;98579.50;;;14.60;100.00
70815;BME280;58428;49.478;10.986;2023-05-29T05:30:47;98578.97;;;14.70;100.00
70815;BME280;58428;49.478;10.986;2023-05-29T05:33:13;98581.91;;;14.77;100.00
70815;BME280;58428;49.478;10.986;2023-05-29T05:35:38;98582.09;;;14.84;100.00
70815;BME280;58428;49.478;10.986;2023-05-29T05:38:04;98584.66;;;14.92;100.00
70815;BME280;58428;49.478;10.986;2023-05-29T05:40:29;98587.47;;;14.96;100.00
70815;BME280;58428;49.478;10.986;2023-05-29T05:42:54;98588.97;;;15.08;100.00
70815;BME280;58428;49.478;10.986;2023-05-29T05:45:20;98592.28;;;15.14;100.00
70815;BME280;58428;49.478;10.986;2023-05-29T05:47:46;98587.59;;;15.14;100.00
70815;BME280;58428;49.478;10.986;2023-05-29T05:50:12;98599.94;;;15.24;100.00
70815;BME280;58428;49.478;10.986;2023-05-29T05:52:37;98596.56;;;15.46;100.00
70815;BME280;58428;49.478;10.986;2023-05-29T05:55:03;98593.84;;;15.61;100.00
70815;BME280;58428;49.478;10.986;2023-05-29T05:57:29;98597.69;;;15.75;100.00
70815;BME280;58428;49.478;10.986;2023-05-29T05:59:55;98594.94;;;15.90;100.00
70815;BME280;58428;49.478;10.986;2023-05-29T06:02:20;98599.22;;;16.07;100.00
70815;BME280;58428;49.478;10.986;2023-05-29T06:04:46;98605.38;;;16.19;100.00
70815;BME280;58428;49.478;10.986;2023-05-29T06:07:11;98600.50;;;16.28;100.00
70815;BME280;58428;49.478;10.986;2023-05-29T06:09:37;98596.69;;;16.32;100.00
70815;BME280;58428;49.478;10.986;2023-05-29T06:12:02;98601.94;;;16.41;100.00
70815;BME280;58428;49.478;10.986;2023-05-29T06:14:33;98592.59;;;16.42;100.00
70815;BME280;58428;49.478;10.986;2023-05-29T06:17:00;98594.59;;;16.45;100.00
70815;BME280;58428;49.478;10.986;2023-05-29T06:19:25;98598.72;;;16.54;100.00
70815;BME280;58428;49.478;10.986;2023-05-29T06:21:51;98596.25;;;16.68;100.00
70815;BME280;58428;49.478;10.986;2023-05-29T06:24:16;98599.84;;;16.72;100.00
70815;BME280;58428;49.478;10.986;2023-05-29T06:26:43;98596.25;;;16.87;100.00
70815;BME280;58428;49.478;10.986;2023-05-29T06:29:10;98600.75;;;16.98;100.00
70815;BME280;58428;49.478;10.986;2023-05-29T06:31:38;98597.84;;;17.10;100.00
70815;BME280;58428;49.478;10.986;2023-05-29T06:34:03;98603.75;;;17.12;100.00
70815;BME280;58428;49.478;10.986;2023-05-29T06:36:28;98603.47;;;17.17;100.00
70815;BME280;58428;49.478;10.986;2023-05-29T06:38:54;98606.59;;;17.37;100.00
70815;BME280;58428;49.478;10.986;2023-05-29T06:41:19;98607.63;;;17.52;100.00
70815;BME280;58428;49.478;10.986;2023-05-29T06:43:46;98607.44;;;17.64;100.00
70815;BME280;58428;49.478;10.986;2023-05-29T06:46:11;98602.47;;;17.72;100.00
70815;BME280;58428;49.478;10.986;2023-05-29T06:48:36;98610.44;;;17.81;100.00
70815;BME280;58428;49.478;10.986;2023-05-29T06:51:02;98606.66;;;17.89;100.00
70815;BME280;58428;49.478;10.986;2023-05-29T06:53:40;98607.22;;;18.01;100.00
70815;BME280;58428;49.478;10.986;2023-05-29T06:56:05;98603.88;;;18.11;100.00
70815;BME280;58428;49.478;10.986;2023-05-29T06:58:32;98598.19;;;18.23;100.00
70815;BME280;58428;49.478;10.986;2023-05-29T07:00:59;98600.38;;;18.40;100.00
70815;BME280;58428;49.478;10.986;2023-05-29T07:03:26;98603.59;;;18.45;100.00
70815;BME280;58428;49.478;10.986;2023-05-29T07:05:51;98593.94;;;18.54;100.00
70815;BME280;58428;49.478;10.986;2023-05-29T07:08:18;98594.84;;;18.65;100.00
70815;BME280;58428;49.478;10.986;2023-05-29T07:10:43;98595.66;;;18.69;100.00
70815;BME280;58428;49.478;10.986;2023-05-29T07:13:09;98596.16;;;18.78;100.00
70815;BME280;58428;49.478;10.986;2023-05-29T07:15:37;98595.59;;;18.95;100.00
70815;BME280;58428;49.478;10.986;2023-05-29T07:18:02;98591.06;;;19.09;100.00
70815;BME280;58428;49.478;10.986;2023-05-29T07:20:28;98594.28;;;19.18;100.00
70815;BME280;58428;49.478;10.986;2023-05-29T07:22:53;98592.09;;;19.34;100.00
70815;BME280;58428;49.478;10.986;2023-05-29T07:25:19;98594.56;;;19.46;100.00
70815;BME280;58428;49.478;10.986;2023-05-29T07:27:45;98591.91;;;19.56;100.00
70815;BME280;58428;49.478;10.986;2023-05-29T07:30:12;98601.03;;;19.67;100.00
70815;BME280;58428;49.478;10.986;2023-05-29T07:32:39;98594.88;;;19.84;100.00
70815;BME280;58428;49.478;10.986;2023-05-29T07:35:05;98598.06;;;19.89;100.00
70815;BME280;58428;49.478;10.986;2023-05-29T07:37:32;98595.41;;;19.99;100.00
70815;BME280;58428;49.478;10.986;2023-05-29T07:39:58;98598.22;;;20.10;100.00
70815;BME280;58428;49.478;10.986;2023-05-29T07:42:24;98600.66;;;20.22;98.32
70815;BME280;58428;49.478;10.986;2023-05-29T07:44:49;98593.25;;;20.32;100.00
70815;BME280;58428;49.478;10.986;2023-05-29T07:47:15;98601.84;;;20.24;95.18
70815;BME280;58428;49.478;10.986;2023-05-29T07:49:41;98603.03;;;20.30;95.52
70815;BME280;58428;49.478;10.986;2023-05-29T07:52:06;98594.41;;;20.31;97.75
70815;BME280;58428;49.478;10.986;2023-05-29T07:54:32;98603.94;;;20.48;98.67
70815;BME280;58428;49.478;10.986;2023-05-29T07:57:01;98600.47;;;20.58;94.77
70815;BME280;58428;49.478;10.986;2023-05-29T07:59:28;98610.75;;;20.71;95.23
70815;BME280;58428;49.478;10.986;2023-05-29T08:01:54;98603.31;;;20.82;91.66
70815;BME280;58428;49.478;10.986;2023-05-29T08:04:23;98597.09;;;20.95;90.79
70815;BME280;58428;49.478;10.986;2023-05-29T08:06:50;98595.91;;;21.00;88.76
70815;BME280;58428;49.478;10.986;2023-05-29T08:09:17;98592.81;;;21.08;86.08
70815;BME280;58428;49.478;10.986;2023-05-29T08:11:43;98596.38;;;21.26;86.43
70815;BME280;58428;49.478;10.986;2023-05-29T08:14:12;98595.63;;;21.42;78.20
70815;BME280;58428;49.478;10.986;2023-05-29T08:16:38;98597.22;;;21.54;78.04
70815;BME280;58428;49.478;10.986;2023-05-29T08:19:04;98589.38;;;21.63;77.53
70815;BME280;58428;49.478;10.986;2023-05-29T08:21:30;98594.47;;;21.71;72.76
70815;BME280;58428;49.478;10.986;2023-05-29T08:23:57;98585.41;;;21.84;75.80
70815;BME280;58428;49.478;10.986;2023-05-29T08:26:24;98594.47;;;21.92;73.30
70815;BME280;58428;49.478;10.986;2023-05-29T08:28:50;98590.94;;;21.91;68.22
70815;BME280;58428;49.478;10.986;2023-05-29T08:31:16;98587.00;;;21.99;70.97
70815;BME280;58428;49.478;10.986;2023-05-29T08:33:43;98589.34;;;22.11;69.16
70815;BME280;58428;49.478;10.986;2023-05-29T08:36:10;98586.56;;;22.25;69.96
70815;BME280;58428;49.478;10.986;2023-05-29T08:38:36;98581.81;;;22.39;67.88
70815;BME280;58428;49.478;10.986;2023-05-29T08:41:02;98583.38;;;22.40;63.20
70815;BME280;58428;49.478;10.986;2023-05-29T08:43:31;98587.69;;;22.55;66.12
70815;BME280;58428;49.478;10.986;2023-05-29T08:46:02;98584.88;;;22.65;64.18
70815;BME280;58428;49.478;10.986;2023-05-29T08:48:29;98586.81;;;22.75;66.48
70815;BME280;58428;49.478;10.986;2023-05-29T08:50:56;98574.94;;;22.82;63.40
70815;BME280;58428;49.478;10.986;2023-05-29T08:53:23;98579.72;;;22.74;57.80
70815;BME280;58428;49.478;10.986;2023-05-29T08:55:49;98575.81;;;22.65;55.52
70815;BME280;58428;49.478;10.986;2023-05-29T08:58:16;98575.00;;;22.71;60.91
70815;BME280;58428;49.478;10.986;2023-05-29T09:00:44;98574.63;;;22.62;56.30
70815;BME280;58428;49.478;10.986;2023-05-29T09:03:09;98578.53;;;22.72;60.48
70815;BME280;58428;49.478;10.986;2023-05-29T09:05:35;98579.72;;;22.74;57.20
70815;BME280;58428;49.478;10.986;2023-05-29T09:08:11;98570.22;;;22.82;59.28
70815;BME280;58428;49.478;10.986;2023-05-29T09:10:45;98570.97;;;22.90;56.62
70815;BME280;58428;49.478;10.986;2023-05-29T09:13:14;98570.19;;;22.92;57.40
70815;BME280;58428;49.478;10.986;2023-05-29T09:15:40;98560.31;;;22.95;54.45
70815;BME280;58428;49.478;10.986;2023-05-29T09:18:08;98569.75;;;22.97;54.27
70815;BME280;58428;49.478;10.986;2023-05-29T09:20:34;98568.88;;;23.11;54.55
70815;BME280;58428;49.478;10.986;2023-05-29T09:23:04;98570.09;;;23.13;50.35
70815;BME280;58428;49.478;10.986;2023-05-29T09:25:33;98564.50;;;23.17;53.96
70815;BME280;58428;49.478;10.986;2023-05-29T09:28:03;98570.03;;;23.17;52.28
70815;BME280;58428;49.478;10.986;2023-05-29T09:30:44;98577.16;;;23.18;49.98
70815;BME280;58428;49.478;10.986;2023-05-29T09:33:12;98575.50;;;23.27;50.83
70815;BME280;58428;49.478;10.986;2023-05-29T09:35:48;98573.03;;;23.39;51.87
70815;BME280;58428;49.478;10.986;2023-05-29T09:38:17;98582.09;;;23.43;47.53
70815;BME280;58428;49.478;10.986;2023-05-29T09:40:43;98578.63;;;23.32;48.49
70815;BME280;58428;49.478;10.986;2023-05-29T09:45:43;98579.66;;;23.52;47.41
70815;BME280;58428;49.478;10.986;2023-05-29T09:48:23;98577.31;;;23.58;48.51
70815;BME280;58428;49.478;10.986;2023-05-29T09:50:50;98576.81;;;23.69;49.44
70815;BME280;58428;49.478;10.986;2023-05-29T09:53:18;98569.63;;;23.79;47.41
70815;BME280;58428;49.478;10.986;2023-05-29T09:55:49;98577.44;;;23.87;46.23
70815;BME280;58428;49.478;10.986;2023-05-29T09:58:17;98578.97;;;23.88;46.26
70815;BME280;58428;49.478;10.986;2023-05-29T10:00:44;98568.31;;;23.90;44.91
70815;BME280;58428;49.478;10.986;2023-05-29T10:03:10;98578.66;;;23.83;43.14
70815;BME280;58428;49.478;10.986;2023-05-29T10:05:56;98576.97;;;23.92;45.20
70815;BME280;58428;49.478;10.986;2023-05-29T10:08:23;98582.59;;;23.82;40.51
70815;BME280;58428;49.478;10.986;2023-05-29T10:11:02;98571.78;;;23.98;42.86
70815;BME280;58428;49.478;10.986;2023-05-29T10:13:34;98573.72;;;24.04;44.31
70815;BME280;58428;49.478;10.986;2023-05-29T10:16:03;98567.31;;;24.14;44.71
70815;BME280;58428;49.478;10.986;2023-05-29T10:18:36;98554.69;;;24.09;42.34
70815;BME280;58428;49.478;10.986;2023-05-29T10:21:02;98564.53;;;24.14;44.68
70815;BME280;58428;49.478;10.986;2023-05-29T10:23:30;98557.75;;;24.22;41.84
70815;BME280;58428;49.478;10.986;2023-05-29T10:25:59;98566.28;;;24.38;42.82
70815;BME280;58428;49.478;10.986;2023-05-29T10:28:30;98563.13;;;24.39;41.70
70815;BME280;58428;49.478;10.986;2023-05-29T10:31:08;98556.00;;;24.38;41.78
70815;BME280;58428;49.478;10.986;2023-05-29T10:34:22;98555.50;;;24.46;41.25
70815;BME280;58428;49.478;10.986;2023-05-29T10:36:45;98554.66;;;24.53;41.46
70815;BME280;58428;49.478;10.986;2023-05-29T10:39:12;98547.34;;;24.66;45.28
70815;BME280;58428;49.478;10.986;2023-05-29T10:41:41;98546.91;;;24.71;42.80
70815;BME280;58428;49.478;10.986;2023-05-29T10:47:04;98551.84;;;24.86;41.97
70815;BME280;58428;49.478;10.986;2023-05-29T10:49:30;98549.44;;;24.88;42.32
70815;BME280;58428;49.478;10.986;2023-05-29T10:51:59;98545.06;;;24.90;42.13
70815;BME280;58428;49.478;10.986;2023-05-29T10:54:26;98549.25;;;25.05;41.08
70815;BME280;58428;49.478;10.986;2023-05-29T10:57:00;98548.31;;;25.15;41.34
70815;BME280;58428;49.478;10.986;2023-05-29T10:59:26;98547.91;;;25.16;37.78
70815;BME280;58428;49.478;10.986;2023-05-29T11:01:53;98540.69;;;25.22;37.67
70815;BME280;58428;49.478;10.986;2023-05-29T11:04:39;98539.88;;;25.22;34.97
70815;BME280;58428;49.478;10.986;2023-05-29T11:07:07;98539.69;;;25.36;37.53
70815;BME280;58428;49.478;10.986;2023-05-29T11:09:52;98540.25;;;25.50;36.73
70815;BME280;58428;49.478;10.986;2023-05-29T11:12:24;98550.19;;;25.48;37.31
70815;BME280;58428;49.478;10.986;2023-05-29T11:15:09;98546.72;;;25.40;33.37
70815;BME280;58428;49.478;10.986;2023-05-29T11:18:05;98544.75;;;25.41;35.33
70815;BME280;58428;49.478;10.986;2023-05-29T11:20:56;98533.06;;;25.52;36.04
70815;BME280;58428;49.478;10.986;2023-05-29T11:23:24;98529.31;;;25.66;36.12
70815;BME280;58428;49.478;10.986;2023-05-29T11:25:53;98536.44;;;25.67;34.15
70815;BME280;58428;49.478;10.986;2023-05-29T11:28:20;98538.13;;;25.61;35.38
70815;BME280;58428;49.478;10.986;2023-05-29T11:30:47;98533.47;;;25.51;36.06
70815;BME280;58428;49.478;10.986;2023-05-29T11:33:25;98531.09;;;25.53;34.35
70815;BME280;58428;49.478;10.986;2023-05-29T11:35:59;98526.59;;;25.62;35.12
70815;BME280;58428;49.478;10.986;2023-05-29T11:38:26;98525.41;;;25.63;34.08
70815;BME280;58428;49.478;10.986;2023-05-29T11:40:55;98525.81;;;25.62;34.58
70815;BME280;58428;49.478;10.986;2023-05-29T11:43:23;98522.31;;;25.58;35.31
70815;BME280;58428;49.478;10.986;2023-05-29T11:45:49;98527.31;;;25.66;34.66
70815;BME280;58428;49.478;10.986;2023-05-29T11:48:15;98530.88;;;25.67;34.40
70815;BME280;58428;49.478;10.986;2023-05-29T11:50:41;98532.38;;;25.71;35.00
70815;BME280;58428;49.478;10.986;2023-05-29T11:53:11;98532.19;;;25.82;33.81
70815;BME280;58428;49.478;10.986;2023-05-29T11:55:37;98528.91;;;25.90;35.52
70815;BME280;58428;49.478;10.986;2023-05-29T11:58:04;98531.53;;;25.97;34.28
70815;BME280;58428;49.478;10.986;2023-05-29T12:00:32;98531.00;;;26.05;34.55
70815;BME280;58428;49.478;10.986;2023-05-29T12:02:58;98527.34;;;26.08;34.19
70815;BME280;58428;49.478;10.986;2023-05-29T12:05:29;98527.88;;;26.03;34.17
70815;BME280;58428;49.478;10.986;2023-05-29T12:07:54;98535.47;;;25.77;32.92
70815;BME280;58428;49.478;10.986;2023-05-29T12:10:27;98530.66;;;25.81;33.10
70815;BME280;58428;49.478;10.986;2023-05-29T12:12:55;98528.03;;;25.93;33.50
70815;BME280;58428;49.478;10.986;2023-05-29T12:15:21;98523.47;;;25.83;32.94
70815;BME280;58428;49.478;10.986;2023-05-29T12:17:48;98520.50;;;25.93;32.98
70815;BME280;58428;49.478;10.986;2023-05-29T12:20:23;98527.47;;;26.01;33.76
70815;BME280;58428;49.478;10.986;2023-05-29T12:22:52;98523.03;;;26.07;33.30
70815;BME280;58428;49.478;10.986;2023-05-29T12:25:20;98524.44;;;25.96;33.41
70815;BME280;58428;49.478;10.986;2023-05-29T12:27:47;98519.09;;;26.05;32.73
70815;BME280;58428;49.478;10.986;2023-05-29T12:30:22;98514.63;;;26.11;32.46
70815;BME280;58428;49.478;10.986;2023-05-29T12:32:50;98518.03;;;26.22;32.43
70815;BME280;58428;49.478;10.986;2023-05-29T12:35:22;98516.19;;;26.12;30.91
70815;BME280;58428;49.478;10.986;2023-05-29T12:37:48;98519.69;;;26.16;31.46
70815;BME280;58428;49.478;10.986;2023-05-29T12:40:18;98513.66;;;26.21;32.19
70815;BME280;58428;49.478;10.986;2023-05-29T12:42:46;98518.25;;;26.08;31.49
70815;BME280;58428;49.478;10.986;2023-05-29T12:45:12;98516.84;;;26.19;32.11
70815;BME280;58428;49.478;10.986;2023-05-29T12:47:38;98515.66;;;26.20;31.73
70815;BME280;58428;49.478;10.986;2023-05-29T12:50:39;98515.91;;;26.29;32.98
70815;BME280;58428;49.478;10.986;2023-05-29T12:55:33;98513.59;;;26.24;33.43
70815;BME280;58428;49.478;10.986;2023-05-29T12:58:02;98507.56;;;26.29;33.79
70815;BME280;58428;49.478;10.986;2023-05-29T13:00:27;98509.78;;;26.37;34.02
70815;BME280;58428;49.478;10.986;2023-05-29T13:02:54;98491.06;;;26.41;33.85